Orto / Ocaso: 06:52 / 17:08 UTC (Datos para LEAX 13-11-2019)

[fuente: ADDS]

METAR:


LEMG 130430Z 29007KT 9999 FEW045 15/08 Q1013 NOSIG =
TAF LEMG 122300Z 1300/1324 29009KT 9999 FEW040 TX22/1313Z TN14/1304Z PROB40 TEMPO 1310/1317 30015G25KT LEGR 130430Z AUTO 00000KT 9999 SCT027 BKN033 08/06 Q1014 =
TAF LEGR 130200Z 1303/1403 VRB02KT CAVOK TX18/1315Z TN03/1306Z TEMPO 1303/1312 4000 DZ BR BKN010 PROB30 TEMPO 1303/1309 0500 FG VV001 TEMPO 1309/1315 30010KT LEZL 130430Z 23010KT 9999 SCT035 BKN040 15/12 Q1015 NOSIG =
TAF LEZL 130200Z 1303/1403 26006KT 9999 SCT040 TX24/1315Z TN11/1306Z PROB30 TEMPO 1303/1310 3000 DZ BR BKN010 LEAM 130430Z 35006KT 9999 FEW020 12/07 Q1009 =
TAF LEAM 130200Z 1303/1403 30006KT 9999 FEW030 TX22/1314Z TN10/1306Z BECMG 1309/1311 21010KT BECMG 1317/1319 34008KT PROB40 1317/1322 34016G28KT LEBA 130430Z AUTO 25011KT 9999 BKN032 BKN040 13/09 Q1014 =
TAF LEBA 130200Z 1303/1312 27004KT 9999 SCT030 PROB40 TEMPO 1304/1309 3000 DZ BR BKN008 PROB30 TEMPO 1305/1309 0500 FG VV001 LEJR 130430Z 20003KT 9999 SCT027 BKN044 13/12 Q1016 =
TAF LEJR 122300Z 1300/1324 29006KT CAVOK TX22/1314Z TN10/1306Z PROB40 TEMPO 1302/1310 3000 DZ BR BKN010 PROB30 TEMPO 1310/1315 30015G25KT GEML 130430Z AUTO 26020G32KT 210V300 9999 NCD 17/11 Q1013 =
TAF GEML 130200Z 1303/1403 26014KT 9999 FEW015 TX22/1313Z TN16/1307Z TEMPO 1306/1318 27022G35KT LXGB 130350Z AUTO 25013KT 9999 // FEW023/// SCT046/// 15/11 Q1016 =

TAFOR:


TAF LEMG 122300Z 1300/1324 29009KT 9999 FEW040 TX22/1313Z TN14/1304Z PROB40 TEMPO 1310/1317 30015G25KT =
TAF LEGR 130200Z 1303/1403 VRB02KT CAVOK TX18/1315Z TN03/1306Z TEMPO 1303/1312 4000 DZ BR BKN010 PROB30 TEMPO 1303/1309 0500 FG VV001 TEMPO 1309/1315 30010KT =
TAF LEZL 130200Z 1303/1403 26006KT 9999 SCT040 TX24/1315Z TN11/1306Z PROB30 TEMPO 1303/1310 3000 DZ BR BKN010 =
TAF LEAM 130200Z 1303/1403 30006KT 9999 FEW030 TX22/1314Z TN10/1306Z BECMG 1309/1311 21010KT BECMG 1317/1319 34008KT PROB40 1317/1322 34016G28KT =
TAF LEBA 130200Z 1303/1312 27004KT 9999 SCT030 PROB40 TEMPO 1304/1309 3000 DZ BR BKN008 PROB30 TEMPO 1305/1309 0500 FG VV001 =
TAF LEJR 122300Z 1300/1324 29006KT CAVOK TX22/1314Z TN10/1306Z PROB40 TEMPO 1302/1310 3000 DZ BR BKN010 PROB30 TEMPO 1310/1315 30015G25KT =
TAF GEML 130200Z 1303/1403 26014KT 9999 FEW015 TX22/1313Z TN16/1307Z TEMPO 1306/1318 27022G35KT =

Recuerde que, aunque regularmente actualizada, la información meteorológica aquí presentada no debe ser utilizada para la planificación de vuelos. Si lo desea, puede consultar la información meteorológica adecuada, tanto de aeródromos como en ruta, por las vías oficialmente establecidas en la legislación -> AQUí

Utilizamos "cookies" propias y de terceros para analizar nuestros servicios, medir las audiencias, personalizar el contenido que ofrecemos y mostrar información adaptada a sus intereses mediante la obtención de los datos necesarios para perfilar sus hábitos de navegación e inferir grupos de interés, siempre de modo anónimo. Si continúa utilizando el sitio web AEROCLUBMALAGA.COM, significa que acepta sus términos y condiciones y el uso de "cookies" al utilizar el sitio web y nuestros servicios. Asimismo, podemos utilizar fuentes de datos externas para elaborar estos grupos de interés, así compartir los análisis de navegación y los grupos de interés inferidos con terceros con el objetivo de personalizar los contenidos. Para obtener más información sobre las cookies que utilizamos y cómo eliminarlas, consulte nuestra política de privacidad.

Acepto las cookies de esta página web.
EU Cookie Directive plugin by www.channeldigital.co.uk